Pagrindinis puslapis
METAR-TAF:

METAR-TAF

Oro uostai :

Rijadas, Saudo Arabija

platuma: 24-56N, ilguma: 046-43E, Aukštis: 614 m

Dabartinis oras

Ataskaita buvo paskelbta 46 minutes, ne 23:00 UTC
Vėjas 4 kt iš Vakarų/Šiaurės Vakarų
Temperatūra 31°C
Drėgmė 17%
Slėgis 1011 hPa
Matomumas: 7000 m

METAR: OERK 052300Z 29004KT 7000 NSC 31/03 Q1011 NOSIG

Laikas: 02:46 (23:46 UTC)

Prognozė

Ataskaita buvo paskelbta 12 valandos ir 46 minutes, ne 11:00 UTC
Prognozė galioja nuo 05 metu 12 UTC su 06 metu 18 UTC
Vėjas 15 kt iš Šiaurės Rytų
Matomumas: 6000 m
Laikinai
nuo 05 metu 12 UTC su 05 metu 20 UTC
Matomumas: 4000 m
Dulkes pustymas
Tikimybė 30% :
Laikinai
nuo 05 metu 12 UTC su 05 metu 18 UTC
Matomumas: 1500 m
Tapsmas
nuo 05 metu 18 UTC su 05 metu 20 UTC
Vėjas 6 kt iš Šiaurės

TAF: OERK 051100Z 0512/0618 04015KT 6000 NSC TEMPO 0512/0520 4000 BLDU PROB30 TEMPO 0512/0518 1500 BECMG 0518/0520 36006KT

Orai ataskaitas ir orų prognozės (METAR, TAF).

turimą stotys yra geltonos ir raudonos taškus žemėlapyje.

Perkelti pele per norėdami pamatyti stoties vardą.

Tada spustelėkite, norėdami matyti oro stebėjimo ir prognozės.

Norėdami pakeisti žemėlapį: spustelėkite ant žalios mygtukų su juodo kryžiaus žemyn,; žalią mygtuką su brūkšneliu, jei norite nutolinti; arba žalių rodyklių gretimoms žemėlapius.


METAR-TAF: